Capt. Harry — WDC3690 — position and weather

sailwx.info

Track history (hours):
 
Tides and Currents Weather Stations Pressure Air Temp Water Temp Dewpoint Dewpoint Depression Visibility Wind Speed Wind Dir Waves Ship Positions

Capt. Harry

Owner: Wilmington Tug, Inc., New Castle, DE. More information available from US FCC via Universal Licensing System and Coast Guard Vessel Documentation Center.

Last reported at 2015-May-30 18:34 UTC. Time now 2015-May-30 22:30 UTC.
Position N 38°58' W 075°12'.

Type: Tug. MMSI: 367012530.

Date/timePositionNaut miles runAvg speedWind from/ knotsBaromVisibWave heightAir tempDewpointWater temp
2015-May-30 18:34N 38°58' W 075°12'2 2.4
2015-May-30 17:33N 39°00' W 075°13'45 5.3
2015-May-30 09:07N 39°43' W 075°31'9 3.2
2015-May-30 06:14N 39°50' W 075°22'5 7.3
2015-May-30 05:33N 39°51' W 075°16'1 1.2
2015-May-30 04:34N 39°51' W 075°18'2 1.6
2015-May-30 03:34N 39°51' W 075°16'0 0.0
2015-May-30 02:33N 39°51' W 075°16'0 0.0
2015-May-30 01:33N 39°51' W 075°16'0 0.0
2015-May-30 00:33N 39°51' W 075°16'0 0.0
2015-May-29 23:33N 39°51' W 075°16'0 0.0
2015-May-29 22:33N 39°51' W 075°16'0 0.0
2015-May-29 21:33N 39°51' W 075°16'0 0.0
2015-May-29 20:33N 39°51' W 075°16'0 0.0
2015-May-29 19:32N 39°51' W 075°16'2 2.5
2015-May-29 18:33N 39°52' W 075°13'2 1.7
2015-May-29 17:33N 39°53' W 075°11'0 0.2
2015-May-29 16:33N 39°53' W 075°11'0 0.4
2015-May-29 15:33N 39°53' W 075°11'1 1.2
2015-May-29 14:33N 39°53' W 075°12'1 0.9
2015-May-29 13:33N 39°53' W 075°11'0 0.0
2015-May-29 12:33N 39°53' W 075°11'0 0.0
2015-May-29 11:33N 39°53' W 075°11'0 0.0
2015-May-29 10:33N 39°53' W 075°11'0 0.0
2015-May-29 09:34N 39°53' W 075°11'0 0.0
2015-May-29 08:33N 39°53' W 075°11'0 0.0
2015-May-29 07:33N 39°53' W 075°11'0 0.0
2015-May-29 06:33N 39°53' W 075°11'0 0.0
2015-May-29 05:34N 39°53' W 075°11'0 0.0
2015-May-29 04:33N 39°53' W 075°11'0 0.0
2015-May-29 03:34N 39°53' W 075°11'0 0.0
2015-May-29 02:33N 39°53' W 075°11'0 0.0
2015-May-29 01:33N 39°53' W 075°11'0 0.0
2015-May-29 00:33N 39°53' W 075°11'0 0.0
2015-May-28 23:34N 39°53' W 075°11'1 1.4
2015-May-28 22:33N 39°52' W 075°13'5 5.2
2015-May-28 21:33N 39°51' W 075°19'4 3.8
2015-May-28 20:33N 39°49' W 075°23'17 1.5
2015-May-28 09:11N 39°35' W 075°35'0 0.0
2015-May-28 08:33N 39°35' W 075°35'0 0.0
2015-May-28 07:33N 39°35' W 075°35'3 3.0
2015-May-28 06:33N 39°38' W 075°36'1312.9
2015-May-28 05:33N 39°48' W 075°25'1211.8
2015-May-28 04:34N 39°53' W 075°11'0 0.2
2015-May-28 03:34N 39°53' W 075°11'0 0.0
2015-May-28 02:33N 39°53' W 075°11'0 0.0
2015-May-28 01:34N 39°53' W 075°11'0 0.0
2015-May-28 00:34N 39°53' W 075°11'0 0.0
2015-May-27 23:34N 39°53' W 075°11'0 0.0
2015-May-27 22:34N 39°53' W 075°11'0 0.0
2015-May-27 21:33N 39°53' W 075°11'0 0.0
2015-May-27 20:33N 39°53' W 075°11'0 0.0
2015-May-27 19:33N 39°53' W 075°11'0 0.0
2015-May-27 18:33N 39°53' W 075°11'0 0.0
2015-May-27 17:33N 39°53' W 075°11'0 0.0
2015-May-27 16:33N 39°53' W 075°11'1 0.8
2015-May-27 15:33N 39°53' W 075°10'7 6.8
2015-May-27 14:33N 39°59' W 075°06'1 0.5
2015-May-27 13:33N 39°59' W 075°05'3 2.9
2015-May-27 12:33N 39°57' W 075°08'5 4.5
2015-May-27 11:33N 39°53' W 075°11'0 0.0
2015-May-27 10:33N 39°53' W 075°11'0 0.0
2015-May-27 09:33N 39°53' W 075°11'0 0.0
2015-May-27 08:33N 39°53' W 075°11'0 0.0
2015-May-27 07:33N 39°53' W 075°11'0 0.0
2015-May-27 06:33N 39°53' W 075°11'0 0.0
2015-May-27 05:33N 39°53' W 075°11'0 0.0
2015-May-27 04:33N 39°53' W 075°11'0 0.0
2015-May-27 03:33N 39°53' W 075°11'0 0.0
2015-May-27 02:33N 39°53' W 075°11'2 2.3
2015-May-27 01:33N 39°52' W 075°13'1 1.4
2015-May-27 00:33N 39°51' W 075°15'0 0.0
2015-May-26 23:33N 39°51' W 075°15'0 0.1
2015-May-26 22:33N 39°51' W 075°15'1 0.5
2015-May-26 21:33N 39°51' W 075°16'0 0.0
2015-May-26 20:33N 39°51' W 075°16'0 0.0
2015-May-26 19:33N 39°51' W 075°16'0 0.0
2015-May-26 18:33N 39°51' W 075°16'0 0.0
2015-May-26 17:33N 39°51' W 075°16'0 0.0
2015-May-26 16:32N 39°51' W 075°16'0 0.3
2015-May-26 15:34N 39°51' W 075°16'0 0.0
2015-May-26 14:33N 39°51' W 075°16'1 1.1
2015-May-26 13:32N 39°51' W 075°17'1 1.4
2015-May-26 12:33N 39°51' W 075°16'0 0.0
2015-May-26 11:33N 39°51' W 075°16'2 2.2
2015-May-26 10:33N 39°52' W 075°13'0 0.1
2015-May-26 09:33N 39°52' W 075°13'0 0.2
2015-May-26 08:34N 39°52' W 075°13'0 0.0
2015-May-26 07:34N 39°52' W 075°13'0 0.1
2015-May-26 06:34N 39°52' W 075°13'2 1.9
2015-May-26 05:34N 39°51' W 075°15'4 4.1
2015-May-26 04:33N 39°51' W 075°20'9 9.0
2015-May-26 03:31N 39°44' W 075°29'4 0.2
2015-May-25 09:32N 39°41' W 075°31'2 0.5
2015-May-25 06:23N 39°43' W 075°31'1 0.1
2015-May-24 21:11N 39°42' W 075°31'1 0.1
2015-May-24 13:17N 39°41' W 075°31'2 1.0
2015-May-24 11:12N 39°43' W 075°31'0 0.0
2015-May-24 07:21N 39°43' W 075°31'0 0.0
2015-May-24 06:29N 39°43' W 075°31'0 0.0
2015-May-24 05:34N 39°43' W 075°31'0 0.0
2015-May-24 04:32N 39°43' W 075°31'0 0.0
2015-May-24 02:29N 39°43' W 075°31'2 0.5
2015-May-23 23:28N 39°41' W 075°31'8 0.6
2015-May-23 09:32N 39°48' W 075°25'1 0.5
2015-May-23 08:12N 39°49' W 075°25'0 0.0
2015-May-23 07:19N 39°49' W 075°25'0 0.0
2015-May-23 06:06N 39°49' W 075°25'711.3
2015-May-23 05:27N 39°43' W 075°31'12 0.9
2015-May-22 16:25N 39°51' W 075°19'7 7.8
2015-May-22 15:33N 39°53' W 075°11'0 0.0
2015-May-22 14:33N 39°53' W 075°11'0 0.0
2015-May-22 13:33N 39°53' W 075°11'0 0.0
2015-May-22 12:33N 39°53' W 075°11'0 0.0
2015-May-22 11:33N 39°53' W 075°11'0 0.0
2015-May-22 10:33N 39°53' W 075°11'0 0.0
2015-May-22 09:33N 39°53' W 075°11'0 0.0
2015-May-22 08:33N 39°53' W 075°11'0 0.0
2015-May-22 07:33N 39°53' W 075°11'0 0.0
2015-May-22 06:33N 39°53' W 075°11'0 0.0
2015-May-22 05:33N 39°53' W 075°11'0 0.0
2015-May-22 04:33N 39°53' W 075°11'0 0.0
2015-May-22 03:33N 39°53' W 075°11'0 0.0
2015-May-22 02:33N 39°53' W 075°11'0 0.0
2015-May-22 01:33N 39°53' W 075°11'0 0.0
2015-May-22 00:33N 39°53' W 075°11'0 0.0
2015-May-21 23:33N 39°53' W 075°11'0 0.0
2015-May-21 22:33N 39°53' W 075°11'3 2.8
2015-May-21 21:33N 39°51' W 075°14'1 1.1
2015-May-21 20:33N 39°52' W 075°13'4 4.5
2015-May-21 19:33N 39°54' W 075°08'0 0.4
2015-May-21 18:33N 39°54' W 075°08'0 0.4
2015-May-21 17:33N 39°54' W 075°08'0 0.0
2015-May-21 16:33N 39°54' W 075°08'0 0.0
2015-May-21 15:33N 39°54' W 075°08'2 1.9
2015-May-21 14:33N 39°53' W 075°10'1 1.3
2015-May-21 13:33N 39°53' W 075°11'0 0.0
2015-May-21 12:33N 39°53' W 075°11'0 0.0
2015-May-21 11:33N 39°53' W 075°11'0 0.0
2015-May-21 10:33N 39°53' W 075°11'0 0.0
2015-May-21 09:33N 39°53' W 075°11'0 0.0
2015-May-21 08:33N 39°53' W 075°11'0 0.0
2015-May-21 07:33N 39°53' W 075°11'0 0.0
2015-May-21 06:33N 39°53' W 075°11'2 2.4
2015-May-21 05:33N 39°54' W 075°08'2 2.4
2015-May-21 04:33N 39°53' W 075°11'0 0.0
2015-May-21 03:34N 39°53' W 075°11'0 0.0
2015-May-21 02:33N 39°53' W 075°11'0 0.0
2015-May-21 01:33N 39°53' W 075°11'0 0.0
2015-May-21 00:33N 39°53' W 075°11'0 0.0
2015-May-20 23:33N 39°53' W 075°11'0 0.0
2015-May-20 22:33N 39°53' W 075°11'0 0.0
2015-May-20 21:33N 39°53' W 075°11'0 0.0
2015-May-20 20:33N 39°53' W 075°11'0 0.0
2015-May-20 19:33N 39°53' W 075°11'  
Track history (hours):
 
Tides and Currents Weather Stations Pressure Air Temp Water Temp Dewpoint Dewpoint Depression Visibility Wind Speed Wind Dir Waves Ship Positions

Capt. Harry

Owner: Wilmington Tug, Inc., New Castle, DE. More information available from US FCC via Universal Licensing System and Coast Guard Vessel Documentation Center.

Last reported at 2015-May-30 18:34 UTC. Time now 2015-May-30 22:30 UTC.
Position N 38°58' W 075°12'.

Type: Tug. MMSI: 367012530.

Date/timePositionNaut miles runAvg speedWind from/ knotsBaromVisibWave heightAir tempDewpointWater temp
2015-May-30 18:34N 38°58' W 075°12'2 2.4
2015-May-30 17:33N 39°00' W 075°13'45 5.3
2015-May-30 09:07N 39°43' W 075°31'9 3.2
2015-May-30 06:14N 39°50' W 075°22'5 7.3
2015-May-30 05:33N 39°51' W 075°16'1 1.2
2015-May-30 04:34N 39°51' W 075°18'2 1.6
2015-May-30 03:34N 39°51' W 075°16'0 0.0
2015-May-30 02:33N 39°51' W 075°16'0 0.0
2015-May-30 01:33N 39°51' W 075°16'0 0.0
2015-May-30 00:33N 39°51' W 075°16'0 0.0
2015-May-29 23:33N 39°51' W 075°16'0 0.0
2015-May-29 22:33N 39°51' W 075°16'0 0.0
2015-May-29 21:33N 39°51' W 075°16'0 0.0
2015-May-29 20:33N 39°51' W 075°16'0 0.0
2015-May-29 19:32N 39°51' W 075°16'2 2.5
2015-May-29 18:33N 39°52' W 075°13'2 1.7
2015-May-29 17:33N 39°53' W 075°11'0 0.2
2015-May-29 16:33N 39°53' W 075°11'0 0.4
2015-May-29 15:33N 39°53' W 075°11'1 1.2
2015-May-29 14:33N 39°53' W 075°12'1 0.9
2015-May-29 13:33N 39°53' W 075°11'0 0.0
2015-May-29 12:33N 39°53' W 075°11'0 0.0
2015-May-29 11:33N 39°53' W 075°11'0 0.0
2015-May-29 10:33N 39°53' W 075°11'0 0.0
2015-May-29 09:34N 39°53' W 075°11'0 0.0
2015-May-29 08:33N 39°53' W 075°11'0 0.0
2015-May-29 07:33N 39°53' W 075°11'0 0.0
2015-May-29 06:33N 39°53' W 075°11'0 0.0
2015-May-29 05:34N 39°53' W 075°11'0 0.0
2015-May-29 04:33N 39°53' W 075°11'0 0.0
2015-May-29 03:34N 39°53' W 075°11'0 0.0
2015-May-29 02:33N 39°53' W 075°11'0 0.0
2015-May-29 01:33N 39°53' W 075°11'0 0.0
2015-May-29 00:33N 39°53' W 075°11'0 0.0
2015-May-28 23:34N 39°53' W 075°11'1 1.4
2015-May-28 22:33N 39°52' W 075°13'5 5.2
2015-May-28 21:33N 39°51' W 075°19'4 3.8
2015-May-28 20:33N 39°49' W 075°23'17 1.5
2015-May-28 09:11N 39°35' W 075°35'0 0.0
2015-May-28 08:33N 39°35' W 075°35'0 0.0
2015-May-28 07:33N 39°35' W 075°35'3 3.0
2015-May-28 06:33N 39°38' W 075°36'1312.9
2015-May-28 05:33N 39°48' W 075°25'1211.8
2015-May-28 04:34N 39°53' W 075°11'0 0.2
2015-May-28 03:34N 39°53' W 075°11'0 0.0
2015-May-28 02:33N 39°53' W 075°11'0 0.0
2015-May-28 01:34N 39°53' W 075°11'0 0.0
2015-May-28 00:34N 39°53' W 075°11'0 0.0
2015-May-27 23:34N 39°53' W 075°11'0 0.0
2015-May-27 22:34N 39°53' W 075°11'0 0.0
2015-May-27 21:33N 39°53' W 075°11'0 0.0
2015-May-27 20:33N 39°53' W 075°11'0 0.0
2015-May-27 19:33N 39°53' W 075°11'0 0.0
2015-May-27 18:33N 39°53' W 075°11'0 0.0
2015-May-27 17:33N 39°53' W 075°11'0 0.0
2015-May-27 16:33N 39°53' W 075°11'1 0.8
2015-May-27 15:33N 39°53' W 075°10'7 6.8
2015-May-27 14:33N 39°59' W 075°06'1 0.5
2015-May-27 13:33N 39°59' W 075°05'3 2.9
2015-May-27 12:33N 39°57' W 075°08'5 4.5
2015-May-27 11:33N 39°53' W 075°11'0 0.0
2015-May-27 10:33N 39°53' W 075°11'0 0.0
2015-May-27 09:33N 39°53' W 075°11'0 0.0
2015-May-27 08:33N 39°53' W 075°11'0 0.0
2015-May-27 07:33N 39°53' W 075°11'0 0.0
2015-May-27 06:33N 39°53' W 075°11'0 0.0
2015-May-27 05:33N 39°53' W 075°11'0 0.0
2015-May-27 04:33N 39°53' W 075°11'0 0.0
2015-May-27 03:33N 39°53' W 075°11'0 0.0
2015-May-27 02:33N 39°53' W 075°11'2 2.3
2015-May-27 01:33N 39°52' W 075°13'1 1.4
2015-May-27 00:33N 39°51' W 075°15'0 0.0
2015-May-26 23:33N 39°51' W 075°15'0 0.1
2015-May-26 22:33N 39°51' W 075°15'1 0.5
2015-May-26 21:33N 39°51' W 075°16'0 0.0
2015-May-26 20:33N 39°51' W 075°16'0 0.0
2015-May-26 19:33N 39°51' W 075°16'0 0.0
2015-May-26 18:33N 39°51' W 075°16'0 0.0
2015-May-26 17:33N 39°51' W 075°16'0 0.0
2015-May-26 16:32N 39°51' W 075°16'0 0.3
2015-May-26 15:34N 39°51' W 075°16'0 0.0
2015-May-26 14:33N 39°51' W 075°16'1 1.1
2015-May-26 13:32N 39°51' W 075°17'1 1.4
2015-May-26 12:33N 39°51' W 075°16'0 0.0
2015-May-26 11:33N 39°51' W 075°16'2 2.2
2015-May-26 10:33N 39°52' W 075°13'0 0.1
2015-May-26 09:33N 39°52' W 075°13'0 0.2
2015-May-26 08:34N 39°52' W 075°13'0 0.0
2015-May-26 07:34N 39°52' W 075°13'0 0.1
2015-May-26 06:34N 39°52' W 075°13'2 1.9
2015-May-26 05:34N 39°51' W 075°15'4 4.1
2015-May-26 04:33N 39°51' W 075°20'9 9.0
2015-May-26 03:31N 39°44' W 075°29'4 0.2
2015-May-25 09:32N 39°41' W 075°31'2 0.5
2015-May-25 06:23N 39°43' W 075°31'1 0.1
2015-May-24 21:11N 39°42' W 075°31'1 0.1
2015-May-24 13:17N 39°41' W 075°31'2 1.0
2015-May-24 11:12N 39°43' W 075°31'0 0.0
2015-May-24 07:21N 39°43' W 075°31'0 0.0
2015-May-24 06:29N 39°43' W 075°31'0 0.0
2015-May-24 05:34N 39°43' W 075°31'0 0.0
2015-May-24 04:32N 39°43' W 075°31'0 0.0
2015-May-24 02:29N 39°43' W 075°31'2 0.5
2015-May-23 23:28N 39°41' W 075°31'8 0.6
2015-May-23 09:32N 39°48' W 075°25'1 0.5
2015-May-23 08:12N 39°49' W 075°25'0 0.0
2015-May-23 07:19N 39°49' W 075°25'0 0.0
2015-May-23 06:06N 39°49' W 075°25'711.3
2015-May-23 05:27N 39°43' W 075°31'12 0.9
2015-May-22 16:25N 39°51' W 075°19'7 7.8
2015-May-22 15:33N 39°53' W 075°11'0 0.0
2015-May-22 14:33N 39°53' W 075°11'0 0.0
2015-May-22 13:33N 39°53' W 075°11'0 0.0
2015-May-22 12:33N 39°53' W 075°11'0 0.0
2015-May-22 11:33N 39°53' W 075°11'0 0.0
2015-May-22 10:33N 39°53' W 075°11'0 0.0
2015-May-22 09:33N 39°53' W 075°11'0 0.0
2015-May-22 08:33N 39°53' W 075°11'0 0.0
2015-May-22 07:33N 39°53' W 075°11'0 0.0
2015-May-22 06:33N 39°53' W 075°11'0 0.0
2015-May-22 05:33N 39°53' W 075°11'0 0.0
2015-May-22 04:33N 39°53' W 075°11'0 0.0
2015-May-22 03:33N 39°53' W 075°11'0 0.0
2015-May-22 02:33N 39°53' W 075°11'0 0.0
2015-May-22 01:33N 39°53' W 075°11'0 0.0
2015-May-22 00:33N 39°53' W 075°11'0 0.0
2015-May-21 23:33N 39°53' W 075°11'0 0.0
2015-May-21 22:33N 39°53' W 075°11'3 2.8
2015-May-21 21:33N 39°51' W 075°14'1 1.1
2015-May-21 20:33N 39°52' W 075°13'4 4.5
2015-May-21 19:33N 39°54' W 075°08'0 0.4
2015-May-21 18:33N 39°54' W 075°08'0 0.4
2015-May-21 17:33N 39°54' W 075°08'0 0.0
2015-May-21 16:33N 39°54' W 075°08'0 0.0
2015-May-21 15:33N 39°54' W 075°08'2 1.9
2015-May-21 14:33N 39°53' W 075°10'1 1.3
2015-May-21 13:33N 39°53' W 075°11'0 0.0
2015-May-21 12:33N 39°53' W 075°11'0 0.0
2015-May-21 11:33N 39°53' W 075°11'0 0.0
2015-May-21 10:33N 39°53' W 075°11'0 0.0
2015-May-21 09:33N 39°53' W 075°11'0 0.0
2015-May-21 08:33N 39°53' W 075°11'0 0.0
2015-May-21 07:33N 39°53' W 075°11'0 0.0
2015-May-21 06:33N 39°53' W 075°11'2 2.4
2015-May-21 05:33N 39°54' W 075°08'2 2.4
2015-May-21 04:33N 39°53' W 075°11'0 0.0
2015-May-21 03:34N 39°53' W 075°11'0 0.0
2015-May-21 02:33N 39°53' W 075°11'0 0.0
2015-May-21 01:33N 39°53' W 075°11'0 0.0
2015-May-21 00:33N 39°53' W 075°11'0 0.0
2015-May-20 23:33N 39°53' W 075°11'0 0.0
2015-May-20 22:33N 39°53' W 075°11'0 0.0
2015-May-20 21:33N 39°53' W 075°11'0 0.0
2015-May-20 20:33N 39°53' W 075°11'0 0.0
2015-May-20 19:33N 39°53' W 075°11'  

Dump ship's entire track history